KAUW/AUW METAR and TAF weather

Enter ICAO airport designator
Station Type Date Time Source
KAUW METAR 2019/08/21 02:54 UTC NOAA

KAUW 210254Z AUTO 00000KT 10SM OVC045 21/18 A2995 RMK AO2 SLP141 T02060178 53010


Station Type Date Time Source
KAUW Decoded METAR 2019/08/21 02:54 UTC NOAA

Station name not available
Aug 20, 2019 - 10:54 PM EDT / 2019.08.21 0254 UTC
Wind: Calm:0
Visibility: 10 mile(s):0
Sky conditions: overcast
Temperature: 69.1 F (20.6 C)
Dew Point: 64.0 F (17.8 C)
Relative Humidity: 83%
Pressure (altimeter): 29.95 in. Hg (1014 hPa)
Pressure tendency: 0.03 inches (1.0 hPa) higher than three hours ago
ob: KAUW 210254Z AUTO 00000KT 10SM OVC045 21/18 A2995 RMK AO2 SLP141 T02060178 53010
cycle: 3

Station Type Date Time Source
KAUW TAF 2019/08/20 21:54 UTC NOAA

TAF
AMD KAUW 202052Z 2021/2118 15007KT P6SM SCT040 BKN250
FM210200 28004KT P6SM SCT080
FM210500 32006KT P6SM SCT120
FM210900 32006KT P6SM BKN014
FM211400 33008G14KT P6SM SCT030

Example: see airport list